Time;durP1;ratioP1;P1;durP2;ratioP2;P2;SDS_P1;SDS_P2;PMS_P1;PMS_P2;Temp;Humidity;BMP_temperature;BMP_pressure;BME280_temperature;BME280_humidity;BME280_pressure;Samples;Min_cycle;Max_cycle;Signal;HPM_P1;HPM_P2
2021/04/17 00:00:03;;;;;;;10.27;9.30;;;4.20;1.00;;;;;;4983245;28;20466;-43
2021/04/17 00:02:30;;;;;;;10.60;9.47;;;4.20;1.00;;;;;;4989177;28;20600;-46
2021/04/17 00:04:58;;;;;;;11.60;9.17;;;4.30;1.00;;;;;;4972352;28;20503;-46
2021/04/17 00:07:30;;;;;;;11.80;9.17;;;4.30;1.00;;;;;;4983946;28;20911;-43
2021/04/17 00:09:57;;;;;;;10.40;9.33;;;4.40;1.00;;;;;;4980697;28;20469;-42
2021/04/17 00:12:24;;;;;;;11.17;10.07;;;4.40;1.00;;;;;;4995220;28;20475;-46
2021/04/17 00:14:52;;;;;;;11.93;8.80;;;4.50;1.00;;;;;;4982670;28;20485;-48
2021/04/17 00:17:20;;;;;;;10.73;9.67;;;4.50;1.00;;;;;;4992554;28;20465;-42
2021/04/17 00:19:50;;;;;;;11.60;9.50;;;4.60;1.00;;;;;;4985521;28;20527;-44
2021/04/17 00:22:17;;;;;;;10.27;8.80;;;4.70;1.00;;;;;;4984613;28;20466;-43
2021/04/17 00:24:46;;;;;;;11.93;8.80;;;4.80;1.00;;;;;;4990352;28;20963;-42
2021/04/17 00:27:14;;;;;;;10.53;9.50;;;4.80;1.00;;;;;;5001766;28;20515;-42
2021/04/17 00:29:45;;;;;;;12.93;8.57;;;4.90;1.00;;;;;;5000578;28;20492;-45
2021/04/17 00:32:12;;;;;;;8.90;8.00;;;4.80;1.00;;;;;;5001466;28;20461;-47
2021/04/17 00:34:40;;;;;;;10.13;9.07;;;4.80;1.00;;;;;;5000773;28;20492;-42
2021/04/17 00:37:07;;;;;;;12.57;9.13;;;4.80;1.00;;;;;;5001221;28;20890;-42
2021/04/17 00:39:33;;;;;;;9.87;8.87;;;4.80;1.00;;;;;;4986093;28;20481;-45
2021/04/17 00:42:03;;;;;;;9.03;7.67;;;4.80;1.00;;;;;;4983693;28;20801;-42
2021/04/17 00:44:29;;;;;;;14.17;8.63;;;4.70;1.00;;;;;;5001234;28;20770;-42
2021/04/17 00:46:57;;;;;;;9.53;8.60;;;4.70;1.00;;;;;;5000845;28;20465;-43
2021/04/17 00:49:26;;;;;;;10.27;8.40;;;4.70;1.00;;;;;;5000951;28;20465;-43
2021/04/17 00:51:52;;;;;;;10.80;8.97;;;4.70;1.00;;;;;;5000450;28;20996;-42
2021/04/17 00:54:19;;;;;;;14.00;9.47;;;4.70;1.00;;;;;;4991898;28;20765;-41
2021/04/17 00:56:45;;;;;;;10.03;8.70;;;4.60;1.00;;;;;;4991187;28;20465;-43
2021/04/17 00:59:14;;;;;;;12.27;8.83;;;4.60;1.00;;;;;;4984200;28;20466;-42
2021/04/17 01:01:42;;;;;;;9.13;8.30;;;4.50;1.00;;;;;;4984927;28;20458;-44
2021/04/17 01:04:15;;;;;;;9.70;8.70;;;4.50;1.00;;;;;;4981734;28;20466;-51
2021/04/17 01:06:48;;;;;;;11.40;9.00;;;4.50;1.00;;;;;;4975330;28;20503;-42
2021/04/17 01:09:23;;;;;;;12.73;8.33;;;4.40;1.00;;;;;;4977221;28;20462;-42
2021/04/17 01:11:56;;;;;;;10.73;8.83;;;4.40;1.00;;;;;;4982242;28;20465;-42
2021/04/17 01:14:24;;;;;;;10.80;8.63;;;4.40;1.00;;;;;;4986002;28;20890;-45
2021/04/17 01:16:54;;;;;;;11.47;8.50;;;4.40;1.00;;;;;;4981059;28;20465;-41
2021/04/17 01:19:34;;;;;;;10.63;9.20;;;4.30;1.00;;;;;;4984532;28;20629;-42
2021/04/17 01:22:02;;;;;;;11.33;8.30;;;4.30;1.00;;;;;;4961197;29;20463;-41
2021/04/17 01:24:31;;;;;;;10.53;8.17;;;4.20;1.00;;;;;;4979057;28;20469;-42
2021/04/17 01:26:58;;;;;;;10.10;7.83;;;4.20;1.00;;;;;;5000478;28;20461;-44
2021/04/17 01:29:28;;;;;;;9.53;8.53;;;4.20;1.00;;;;;;4999776;28;20494;-42
2021/04/17 01:31:57;;;;;;;9.93;8.40;;;4.20;1.00;;;;;;5000400;28;20773;-42
2021/04/17 01:34:26;;;;;;;10.10;8.23;;;4.20;1.00;;;;;;4999686;28;20469;-42
2021/04/17 01:36:57;;;;;;;13.93;9.27;;;4.20;1.00;;;;;;5000663;28;20523;-41
2021/04/17 01:39:26;;;;;;;12.17;8.43;;;4.20;1.00;;;;;;4999347;28;20465;-44
2021/04/17 01:41:55;;;;;;;9.30;8.07;;;4.20;1.00;;;;;;4987771;28;20473;-42
2021/04/17 01:44:25;;;;;;;12.20;9.00;;;4.10;1.00;;;;;;4999317;28;20472;-41
2021/04/17 01:46:59;;;;;;;10.10;7.73;;;4.10;1.00;;;;;;4999785;28;20472;-41
2021/04/17 01:49:26;;;;;;;9.80;8.57;;;4.00;1.00;;;;;;4999756;28;20750;-41
2021/04/17 01:51:55;;;;;;;8.93;7.70;;;4.00;1.00;;;;;;4999529;28;20465;-41
2021/04/17 01:54:24;;;;;;;11.93;7.60;;;4.00;1.00;;;;;;4999961;28;20465;-41
2021/04/17 01:56:54;;;;;;;9.60;7.70;;;3.90;1.00;;;;;;4999516;28;20460;-42
2021/04/17 01:59:23;;;;;;;10.73;8.30;;;3.90;1.00;;;;;;4999393;28;20461;-42
2021/04/17 02:01:50;;;;;;;15.17;8.10;;;3.90;1.00;;;;;;4999041;28;20461;-41
2021/04/17 02:04:17;;;;;;;10.73;8.47;;;3.80;1.00;;;;;;4976208;28;20478;-43
2021/04/17 02:06:43;;;;;;;9.40;8.03;;;3.70;1.00;;;;;;4988096;28;20462;-41
2021/04/17 02:09:10;;;;;;;8.80;7.93;;;3.70;1.00;;;;;;4979790;28;20516;-42
2021/04/17 02:11:37;;;;;;;9.03;7.43;;;3.60;1.00;;;;;;4998086;28;20980;-41
2021/04/17 02:14:04;;;;;;;10.03;7.53;;;3.60;1.00;;;;;;4985600;28;20901;-41
2021/04/17 02:16:36;;;;;;;9.17;7.00;;;3.50;1.00;;;;;;4991980;28;20489;-42
2021/04/17 02:19:08;;;;;;;10.23;8.13;;;3.60;1.00;;;;;;4999324;28;20465;-43
2021/04/17 02:21:37;;;;;;;10.10;7.20;;;3.60;1.00;;;;;;4967161;28;20524;-41
2021/04/17 02:24:06;;;;;;;8.30;7.50;;;3.60;1.00;;;;;;4987341;28;20468;-43
2021/04/17 02:26:33;;;;;;;9.50;7.93;;;3.60;1.00;;;;;;4999310;28;20461;-42
2021/04/17 02:29:00;;;;;;;10.07;7.93;;;3.50;1.00;;;;;;5000745;28;20855;-42
2021/04/17 02:31:28;;;;;;;9.63;7.73;;;3.50;1.00;;;;;;4998907;28;20472;-41
2021/04/17 02:33:56;;;;;;;8.90;7.50;;;3.50;1.00;;;;;;5003011;28;20472;-42
2021/04/17 02:36:22;;;;;;;8.40;7.47;;;3.50;1.00;;;;;;4999366;28;20496;-41
2021/04/17 02:38:49;;;;;;;10.73;7.90;;;3.40;1.00;;;;;;5002713;28;20523;-41
2021/04/17 02:41:17;;;;;;;10.40;8.20;;;3.40;1.00;;;;;;4998509;28;20472;-44
2021/04/17 02:43:44;;;;;;;11.20;7.90;;;3.30;1.00;;;;;;5002567;28;20472;-46
2021/04/17 02:46:11;;;;;;;12.97;8.77;;;3.20;1.00;;;;;;4999298;28;20874;-41
2021/04/17 02:48:38;;;;;;;10.47;8.87;;;3.20;1.00;;;;;;4978835;28;20745;-41
2021/04/17 02:51:10;;;;;;;8.13;7.33;;;3.10;1.00;;;;;;4986273;28;20475;-42
2021/04/17 02:53:37;;;;;;;9.77;8.50;;;3.00;1.00;;;;;;4998471;28;20472;-46
2021/04/17 02:56:03;;;;;;;9.63;7.87;;;3.00;1.00;;;;;;5002245;28;20495;-41
2021/04/17 02:58:30;;;;;;;10.37;8.37;;;3.00;1.00;;;;;;4998911;28;20763;-43
2021/04/17 03:00:56;;;;;;;13.13;8.50;;;2.90;1.00;;;;;;5002395;28;20468;-42
2021/04/17 03:03:24;;;;;;;10.30;8.70;;;2.80;1.00;;;;;;4993271;28;20492;-41
2021/04/17 03:05:51;;;;;;;11.00;8.10;;;2.70;1.00;;;;;;5005956;28;20468;-42
2021/04/17 03:08:18;;;;;;;10.20;8.03;;;2.60;1.00;;;;;;4998023;28;20468;-41
2021/04/17 03:10:45;;;;;;;9.67;7.40;;;2.40;1.00;;;;;;5002329;28;20476;-41
2021/04/17 03:13:13;;;;;;;11.13;8.43;;;2.30;1.00;;;;;;4998588;28;20762;-42
2021/04/17 03:15:40;;;;;;;10.20;8.93;;;2.30;1.00;;;;;;5001928;28;20591;-41
2021/04/17 03:18:07;;;;;;;12.60;8.83;;;2.30;1.00;;;;;;4998731;28;20757;-41
2021/04/17 03:20:35;;;;;;;9.47;8.47;;;2.30;1.00;;;;;;5000657;28;20469;-44
2021/04/17 03:23:02;;;;;;;11.20;9.03;;;2.30;1.00;;;;;;4999876;28;20574;-41
2021/04/17 03:25:29;;;;;;;8.50;7.50;;;2.20;1.00;;;;;;4999721;28;20465;-41
2021/04/17 03:27:56;;;;;;;10.03;7.27;;;2.20;1.00;;;;;;5001825;28;20471;-42
2021/04/17 03:30:27;;;;;;;9.33;7.90;;;2.20;1.00;;;;;;4998328;28;20481;-43
2021/04/17 03:32:54;;;;;;;10.70;8.30;;;2.20;1.00;;;;;;5002444;28;20464;-42
2021/04/17 03:35:21;;;;;;;12.63;8.80;;;2.10;1.00;;;;;;4998469;28;20501;-42
2021/04/17 03:37:48;;;;;;;9.40;8.33;;;2.10;1.00;;;;;;5001620;28;20475;-42
2021/04/17 03:40:15;;;;;;;10.50;8.60;;;2.10;1.00;;;;;;4998126;28;20878;-41
2021/04/17 03:42:43;;;;;;;12.27;8.17;;;2.00;1.00;;;;;;5001947;28;20469;-42
2021/04/17 03:45:10;;;;;;;9.77;8.57;;;1.80;1.00;;;;;;4998361;28;20435;-40
2021/04/17 03:47:38;;;;;;;12.07;8.07;;;1.70;1.00;;;;;;5001716;28;20539;-42
2021/04/17 03:50:06;;;;;;;9.53;8.63;;;1.60;1.00;;;;;;4997598;28;20515;-40
2021/04/17 03:52:35;;;;;;;11.40;8.80;;;1.60;1.00;;;;;;5001746;28;20761;-41
2021/04/17 03:55:02;;;;;;;13.03;8.43;;;1.60;1.00;;;;;;4998863;28;20499;-42
2021/04/17 03:57:29;;;;;;;11.10;8.50;;;1.60;1.00;;;;;;5017531;28;20467;-41
2021/04/17 03:59:56;;;;;;;8.80;7.90;;;1.60;1.00;;;;;;5015378;28;20483;-41
2021/04/17 04:02:23;;;;;;;11.77;8.17;;;1.50;1.00;;;;;;4982200;28;20772;-41
2021/04/17 04:04:50;;;;;;;11.80;9.27;;;1.50;1.00;;;;;;5001927;28;20468;-44
2021/04/17 04:07:16;;;;;;;12.27;8.87;;;1.40;1.00;;;;;;5009441;28;20461;-42
2021/04/17 04:09:43;;;;;;;11.87;8.50;;;1.40;1.00;;;;;;5005325;28;20465;-43
2021/04/17 04:12:10;;;;;;;11.03;8.53;;;1.40;1.00;;;;;;5002050;28;20468;-42
2021/04/17 04:14:37;;;;;;;10.10;9.10;;;1.40;1.00;;;;;;5005376;28;20446;-43
2021/04/17 04:17:05;;;;;;;12.40;9.00;;;1.40;1.00;;;;;;5002363;28;20457;-41
2021/04/17 04:19:31;;;;;;;16.33;9.20;;;1.40;1.00;;;;;;5005181;28;20523;-41
2021/04/17 04:21:58;;;;;;;12.07;9.87;;;1.30;1.00;;;;;;5002742;28;20769;-42
2021/04/17 04:24:25;;;;;;;10.37;8.67;;;1.20;1.00;;;;;;5005864;28;20468;-41
2021/04/17 04:26:51;;;;;;;11.93;8.77;;;1.10;1.00;;;;;;5002547;28;20457;-46
2021/04/17 04:29:18;;;;;;;9.50;8.50;;;1.00;1.00;;;;;;5003841;28;20485;-41
2021/04/17 04:31:45;;;;;;;14.30;8.77;;;1.00;1.00;;;;;;5008462;28;20426;-42
2021/04/17 04:34:12;;;;;;;11.07;9.87;;;1.00;1.00;;;;;;5021269;28;20434;-41
2021/04/17 04:36:42;;;;;;;10.77;8.80;;;1.00;33.90;;;;;;5020516;28;20801;-42
2021/04/17 04:39:08;;;;;;;13.73;8.40;;;1.00;91.40;;;;;;5021148;28;20514;-41
2021/04/17 04:41:36;;;;;;;10.70;9.10;;;1.00;97.70;;;;;;5020968;28;20464;-41
2021/04/17 04:44:04;;;;;;;12.80;9.60;;;1.00;99.90;;;;;;5021118;28;20472;-42
2021/04/17 04:46:36;;;;;;;20.23;12.90;;;1.00;99.90;;;;;;5021429;28;20932;-41
2021/04/17 04:49:03;;;;;;;17.17;11.90;;;1.00;99.90;;;;;;5020851;28;20460;-41
2021/04/17 04:51:30;;;;;;;25.43;18.50;;;1.10;99.90;;;;;;5020572;28;20463;-43
2021/04/17 04:53:57;;;;;;;28.83;21.90;;;1.00;99.90;;;;;;5020915;28;20505;-41
2021/04/17 04:56:23;;;;;;;38.27;28.50;;;1.00;99.90;;;;;;5020658;28;20495;-42
2021/04/17 04:58:50;;;;;;;34.80;20.93;;;1.10;99.90;;;;;;5021158;28;20747;-42
2021/04/17 05:01:17;;;;;;;25.30;18.57;;;1.00;94.10;;;;;;5020424;28;20467;-41
2021/04/17 05:03:44;;;;;;;19.13;13.47;;;1.10;99.00;;;;;;5008950;28;20468;-41
2021/04/17 05:06:10;;;;;;;15.67;11.40;;;1.10;99.90;;;;;;5000035;28;20453;-43
2021/04/17 05:08:38;;;;;;;15.50;11.23;;;1.10;99.90;;;;;;5000690;28;20449;-41
2021/04/17 05:11:05;;;;;;;19.00;10.33;;;1.10;99.90;;;;;;5000405;28;20465;-42
2021/04/17 05:13:31;;;;;;;12.47;11.17;;;1.20;96.90;;;;;;5000515;28;20460;-42
2021/04/17 05:15:58;;;;;;;13.47;11.83;;;1.20;99.90;;;;;;5000172;28;20492;-42
2021/04/17 05:18:25;;;;;;;12.47;9.13;;;1.20;99.90;;;;;;5000913;28;20810;-41
2021/04/17 05:20:53;;;;;;;14.20;10.43;;;1.20;99.90;;;;;;5000536;28;20743;-41
2021/04/17 05:23:20;;;;;;;11.97;10.00;;;1.20;99.90;;;;;;5000323;28;20468;-43
2021/04/17 05:25:47;;;;;;;15.33;9.20;;;1.20;99.90;;;;;;5013955;28;20732;-41
2021/04/17 05:28:13;;;;;;;12.20;10.90;;;1.30;99.90;;;;;;5019739;28;20443;-41
2021/04/17 05:30:40;;;;;;;13.00;9.93;;;1.30;99.90;;;;;;5020348;28;20467;-43
2021/04/17 05:33:07;;;;;;;11.10;9.50;;;1.30;99.90;;;;;;5018755;28;20507;-43
2021/04/17 05:35:33;;;;;;;11.73;9.07;;;1.30;99.90;;;;;;4999603;28;20496;-43
2021/04/17 05:38:00;;;;;;;10.27;8.37;;;1.40;99.90;;;;;;4999941;28;20472;-41
2021/04/17 05:40:27;;;;;;;15.30;10.40;;;1.50;99.90;;;;;;5000121;28;20488;-42
2021/04/17 05:42:54;;;;;;;15.23;10.70;;;1.60;99.90;;;;;;4999574;28;20472;-41
2021/04/17 05:45:21;;;;;;;13.33;11.43;;;1.60;99.90;;;;;;5000443;28;20749;-41
2021/04/17 05:47:47;;;;;;;13.40;11.63;;;1.60;99.90;;;;;;4999964;28;20464;-41
2021/04/17 05:50:14;;;;;;;18.70;10.60;;;1.70;99.90;;;;;;5000043;28;20471;-43
2021/04/17 05:52:40;;;;;;;13.10;10.00;;;1.70;99.90;;;;;;4999659;28;20833;-41
2021/04/17 05:55:09;;;;;;;13.80;11.00;;;1.80;99.90;;;;;;5000100;28;20461;-41
2021/04/17 05:57:39;;;;;;;13.60;11.00;;;1.90;99.90;;;;;;4999120;28;20508;-41
2021/04/17 06:00:08;;;;;;;15.53;12.53;;;1.90;99.90;;;;;;5000059;28;20465;-43
2021/04/17 06:02:34;;;;;;;13.70;11.20;;;2.00;99.90;;;;;;4995784;28;20947;-41
2021/04/17 06:05:03;;;;;;;11.77;10.57;;;2.10;99.90;;;;;;4997513;28;20465;-43
2021/04/17 06:07:29;;;;;;;17.33;12.80;;;2.20;99.90;;;;;;4984498;28;20492;-42
2021/04/17 06:09:56;;;;;;;44.50;28.17;;;2.30;99.90;;;;;;4996275;28;20464;-42
2021/04/17 06:12:23;;;;;;;42.30;27.73;;;2.30;97.00;;;;;;4999615;28;20473;-41
2021/04/17 06:14:49;;;;;;;26.70;20.80;;;2.50;99.90;;;;;;4999367;28;20465;-42
2021/04/17 06:17:17;;;;;;;47.70;29.60;;;2.70;91.20;;;;;;4999032;28;20464;-45
2021/04/17 06:19:43;;;;;;;18.00;15.40;;;3.00;42.00;;;;;;4998698;28;20465;-45
2021/04/17 06:22:10;;;;;;;13.53;10.53;;;3.10;1.00;;;;;;4998361;28;20754;-43
2021/04/17 06:24:36;;;;;;;26.53;19.80;;;3.10;1.00;;;;;;4998272;28;20525;-43
2021/04/17 06:27:03;;;;;;;29.13;20.20;;;3.20;1.00;;;;;;4999500;28;20452;-41
2021/04/17 06:29:30;;;;;;;21.43;15.27;;;3.40;1.00;;;;;;4998455;28;20787;-42
2021/04/17 06:31:57;;;;;;;47.80;31.80;;;3.90;1.00;;;;;;4999205;28;20457;-43
2021/04/17 06:34:25;;;;;;;40.40;27.00;;;4.60;1.00;;;;;;4998962;28;20479;-42
2021/04/17 06:36:51;;;;;;;83.73;47.60;;;5.10;1.00;;;;;;4999184;28;20522;-44
2021/04/17 06:39:18;;;;;;;39.83;26.33;;;5.30;1.00;;;;;;4997155;28;20476;-42
2021/04/17 06:41:47;;;;;;;13.83;11.53;;;5.60;1.00;;;;;;4998799;28;20476;-45
2021/04/17 06:44:16;;;;;;;11.80;9.40;;;6.10;1.00;;;;;;4996021;28;20472;-43
2021/04/17 06:46:43;;;;;;;8.73;7.83;;;6.50;1.00;;;;;;4998684;28;20461;-46
2021/04/17 06:49:09;;;;;;;14.40;8.40;;;6.80;1.00;;;;;;4998312;28;20908;-43
2021/04/17 06:51:44;;;;;;;9.53;8.50;;;7.20;99.90;;;;;;4983829;28;20549;-43
2021/04/17 06:54:12;;;;;;;8.67;7.77;;;7.30;99.90;;;;;;4971682;28;20461;-43
2021/04/17 06:56:39;;;;;;;9.87;8.77;;;7.50;99.90;;;;;;4979550;28;20498;-45
2021/04/17 06:59:06;;;;;;;9.90;7.50;;;7.90;99.90;;;;;;4979189;28;20879;-43
2021/04/17 07:01:38;;;;;;;13.10;8.20;;;8.10;99.90;;;;;;4979136;28;20492;-46
2021/04/17 07:04:08;;;;;;;8.73;7.80;;;8.50;99.90;;;;;;4971878;28;20514;-44
2021/04/17 07:06:35;;;;;;;11.33;9.53;;;9.00;99.90;;;;;;4979010;28;20508;-43
2021/04/17 07:09:04;;;;;;;10.93;9.70;;;9.20;99.90;;;;;;4978973;28;20879;-50
2021/04/17 07:11:32;;;;;;;14.90;8.77;;;9.50;99.90;;;;;;4978957;28;20887;-41
2021/04/17 07:14:09;;;;;;;10.77;8.00;;;9.90;99.90;;;;;;4978556;28;20469;-46
2021/04/17 07:16:56;;;;;;;10.37;7.77;;;10.00;99.90;;;;;;4979385;28;20553;-43
2021/04/17 07:19:24;;;;;;;11.27;8.60;;;10.20;99.90;;;;;;4977453;28;20524;-43
2021/04/17 07:21:51;;;;;;;17.80;9.20;;;10.60;99.90;;;;;;4976896;28;20783;-45
2021/04/17 07:24:28;;;;;;;9.40;8.10;;;11.00;99.90;;;;;;4977575;28;20892;-43
2021/04/17 07:26:54;;;;;;;9.17;7.30;;;11.10;99.90;;;;;;4977881;28;20760;-43
2021/04/17 07:29:21;;;;;;;9.73;7.87;;;11.30;99.90;;;;;;4998824;28;20495;-43
2021/04/17 07:31:50;;;;;;;9.03;8.10;;;11.20;99.90;;;;;;5017300;28;20468;-43
2021/04/17 07:34:20;;;;;;;8.70;6.90;;;11.30;99.90;;;;;;5016775;28;20498;-49
2021/04/17 07:36:52;;;;;;;7.90;7.20;;;11.60;99.90;;;;;;5017963;28;20492;-46
2021/04/17 07:39:48;;;;;;;9.30;7.30;;;11.80;99.90;;;;;;5013940;28;20460;-46
2021/04/17 07:42:15;;;;;;;9.00;6.27;;;11.60;99.90;;;;;;4983348;28;20784;-45
2021/04/17 07:44:44;;;;;;;7.57;6.77;;;11.30;99.90;;;;;;5018042;28;20459;-43
2021/04/17 07:47:11;;;;;;;7.70;6.80;;;11.60;99.90;;;;;;5017941;28;20467;-49
2021/04/17 07:49:39;;;;;;;6.57;5.40;;;12.10;99.90;;;;;;5017189;28;20467;-49
2021/04/17 07:52:10;;;;;;;5.30;4.83;;;11.90;99.90;;;;;;5017653;28;20751;-42
2021/04/17 07:54:40;;;;;;;7.00;6.30;;;11.50;99.90;;;;;;5018054;28;20459;-45
2021/04/17 07:57:09;;;;;;;6.20;5.47;;;10.90;99.90;;;;;;5017271;28;20492;-46
2021/04/17 07:59:38;;;;;;;6.17;5.60;;;11.10;99.90;;;;;;5016565;28;20851;-47
2021/04/17 08:02:08;;;;;;;6.20;5.60;;;11.80;99.90;;;;;;5017816;28;20791;-43
2021/04/17 08:04:35;;;;;;;7.00;4.90;;;11.50;99.90;;;;;;4990876;28;20469;-43
2021/04/17 08:07:02;;;;;;;7.07;5.03;;;11.90;99.90;;;;;;4997846;28;20460;-43
2021/04/17 08:09:30;;;;;;;7.00;5.10;;;11.80;99.90;;;;;;4997453;28;20460;-43
2021/04/17 08:11:59;;;;;;;5.90;5.40;;;11.80;99.90;;;;;;4997835;28;20476;-42
2021/04/17 08:14:29;;;;;;;5.80;5.30;;;11.80;99.90;;;;;;4997319;28;20515;-43
2021/04/17 08:16:59;;;;;;;9.17;5.73;;;11.70;99.90;;;;;;4997691;28;20542;-46
2021/04/17 08:19:25;;;;;;;5.47;4.97;;;11.30;99.90;;;;;;4997359;28;20543;-43
2021/04/17 08:22:04;;;;;;;6.00;5.40;;;11.30;99.90;;;;;;4997383;28;20461;-46
2021/04/17 08:24:31;;;;;;;9.07;5.50;;;11.10;99.90;;;;;;4997783;28;20475;-43
2021/04/17 08:27:10;;;;;;;9.43;5.60;;;11.80;99.90;;;;;;4997519;28;20808;-43
2021/04/17 08:29:49;;;;;;;5.10;4.60;;;12.30;99.90;;;;;;4997246;28;20788;-50
2021/04/17 08:32:30;;;;;;;6.33;5.17;;;12.80;99.90;;;;;;4997842;28;20464;-43
2021/04/17 08:35:04;;;;;;;6.53;5.57;;;12.10;99.90;;;;;;4997428;28;20920;-43
2021/04/17 08:37:33;;;;;;;5.13;4.63;;;12.10;99.90;;;;;;5005511;28;20781;-42
2021/04/17 08:40:00;;;;;;;6.37;5.73;;;11.70;99.90;;;;;;5007255;28;20951;-47
2021/04/17 08:42:44;;;;;;;5.93;5.43;;;11.80;99.90;;;;;;5017146;28;20471;-43
2021/04/17 08:45:16;;;;;;;6.07;5.47;;;12.50;99.90;;;;;;5017917;28;20474;-43
2021/04/17 08:47:46;;;;;;;6.83;5.73;;;13.00;99.90;;;;;;5021133;28;20472;-43
2021/04/17 08:50:32;;;;;;;8.30;6.83;;;13.30;99.90;;;;;;5019555;28;20749;-42
2021/04/17 08:53:01;;;;;;;6.57;5.20;;;13.70;99.90;;;;;;5010480;28;20601;-43
2021/04/17 08:55:32;;;;;;;8.67;5.60;;;13.20;99.90;;;;;;5009454;28;20580;-45
2021/04/17 08:58:16;;;;;;;6.37;5.77;;;13.10;99.90;;;;;;5004648;28;20467;-43
2021/04/17 09:01:06;;;;;;;5.60;5.10;;;13.20;99.90;;;;;;5001362;28;20487;-44
2021/04/17 09:03:38;;;;;;;6.50;5.90;;;13.10;99.90;;;;;;4999058;28;20949;-47
2021/04/17 09:06:10;;;;;;;10.93;6.20;;;14.00;99.90;;;;;;4998108;28;20469;-46
2021/04/17 09:08:39;;;;;;;7.50;5.40;;;13.50;99.90;;;;;;5001024;28;20457;-43
2021/04/17 09:11:36;;;;;;;8.03;5.70;;;13.00;99.90;;;;;;5000802;28;20464;-43
2021/04/17 09:14:03;;;;;;;5.77;5.33;;;13.20;99.90;;;;;;4994608;28;20473;-47
2021/04/17 09:16:38;;;;;;;6.33;5.10;;;12.90;99.90;;;;;;5000738;28;20582;-43
2021/04/17 09:19:05;;;;;;;9.90;5.70;;;12.20;99.90;;;;;;5000264;28;20545;-47
2021/04/17 09:21:37;;;;;;;6.60;5.17;;;12.20;99.90;;;;;;4999711;28;20461;-43
2021/04/17 09:24:24;;;;;;;6.87;4.73;;;11.70;99.90;;;;;;5000198;28;20473;-42
2021/04/17 09:26:54;;;;;;;5.40;4.90;;;11.50;99.90;;;;;;5000572;28;20500;-43
2021/04/17 09:29:27;;;;;;;6.20;5.20;;;11.10;99.90;;;;;;5000460;28;20489;-42
2021/04/17 09:31:58;;;;;;;5.83;5.00;;;11.00;99.90;;;;;;5000073;28;20468;-43
2021/04/17 09:34:24;;;;;;;7.90;7.00;;;11.20;99.90;;;;;;5000696;28;20543;-43
2021/04/17 09:36:51;;;;;;;6.07;5.50;;;11.70;99.90;;;;;;5000583;28;20500;-45
2021/04/17 09:39:28;;;;;;;7.50;5.90;;;11.60;99.90;;;;;;4999826;28;20471;-43
2021/04/17 09:41:56;;;;;;;6.57;5.23;;;11.60;99.90;;;;;;5000522;28;20472;-43
2021/04/17 09:44:26;;;;;;;5.90;5.30;;;12.00;99.90;;;;;;4999598;28;20468;-49
2021/04/17 09:47:10;;;;;;;5.70;4.50;;;11.80;99.90;;;;;;4999559;28;20505;-42
2021/04/17 09:49:42;;;;;;;6.33;4.63;;;11.40;99.90;;;;;;4988891;28;20463;-42
2021/04/17 09:52:11;;;;;;;6.27;4.23;;;11.70;99.90;;;;;;5003003;28;20933;-47
2021/04/17 09:54:43;;;;;;;4.70;4.30;;;12.40;99.90;;;;;;5008804;28;20464;-43
2021/04/17 09:57:10;;;;;;;5.03;4.63;;;12.80;99.90;;;;;;4999287;28;20528;-48
2021/04/17 09:59:37;;;;;;;4.60;4.20;;;12.00;99.90;;;;;;4999488;28;20523;-48
2021/04/17 10:02:09;;;;;;;5.67;4.60;;;12.10;99.90;;;;;;4998892;28;20902;-42
2021/04/17 10:04:59;;;;;;;5.97;4.63;;;12.20;99.90;;;;;;5001349;28;20471;-43
2021/04/17 10:07:29;;;;;;;5.83;4.37;;;12.00;99.90;;;;;;5017813;28;20471;-55
2021/04/17 10:09:59;;;;;;;4.70;3.80;;;12.30;99.90;;;;;;5001666;28;20768;-42
2021/04/17 10:12:27;;;;;;;4.40;4.10;;;11.80;99.90;;;;;;5001209;28;20888;-43
2021/04/17 10:15:14;;;;;;;6.80;4.30;;;11.70;99.90;;;;;;5001439;28;20461;-42
2021/04/17 10:17:42;;;;;;;5.47;4.97;;;12.30;99.90;;;;;;4999241;28;20905;-43
2021/04/17 10:20:10;;;;;;;4.67;4.27;;;12.30;99.90;;;;;;4998499;28;20476;-46
2021/04/17 10:22:37;;;;;;;6.13;4.67;;;12.30;99.90;;;;;;5013248;28;20471;-46
2021/04/17 10:25:07;;;;;;;5.97;4.70;;;12.90;99.90;;;;;;5018165;28;20554;-44
2021/04/17 10:27:39;;;;;;;6.80;5.43;;;12.80;99.90;;;;;;5018803;28;20460;-43
2021/04/17 10:30:17;;;;;;;6.07;5.57;;;12.30;99.90;;;;;;5018367;28;20523;-43
2021/04/17 10:32:44;;;;;;;5.63;4.73;;;11.90;99.90;;;;;;5019056;28;20468;-49
2021/04/17 10:35:15;;;;;;;5.00;4.60;;;12.40;99.90;;;;;;5018846;28;20471;-46
2021/04/17 10:37:44;;;;;;;6.73;4.90;;;13.30;99.90;;;;;;5018854;28;20891;-44
2021/04/17 10:40:14;;;;;;;5.27;4.80;;;13.30;99.90;;;;;;5018317;28;20464;-44
2021/04/17 10:42:46;;;;;;;4.77;4.37;;;13.00;99.90;;;;;;5018926;28;20514;-45
2021/04/17 10:45:14;;;;;;;5.30;4.60;;;12.80;99.90;;;;;;5018456;28;20455;-44
2021/04/17 10:47:43;;;;;;;5.30;4.80;;;11.80;99.90;;;;;;5008580;28;20464;-43
2021/04/17 10:50:20;;;;;;;5.23;4.73;;;11.40;99.90;;;;;;4999119;28;20464;-47
2021/04/17 10:52:57;;;;;;;6.03;4.40;;;11.80;99.90;;;;;;4999276;28;20873;-43
2021/04/17 10:55:39;;;;;;;5.83;4.97;;;12.00;99.90;;;;;;4998733;28;20523;-48
2021/04/17 10:58:06;;;;;;;6.60;5.67;;;11.90;99.90;;;;;;4998667;28;20467;-42
2021/04/17 11:00:36;;;;;;;5.93;5.27;;;12.60;99.90;;;;;;4998322;28;20473;-45
2021/04/17 11:03:08;;;;;;;5.27;4.60;;;13.00;99.90;;;;;;4994186;28;20483;-45
2021/04/17 11:05:39;;;;;;;8.18;5.18;;;13.10;99.90;;;;;;4998411;28;20475;-45
2021/04/17 11:08:06;;;;;;;8.43;5.67;;;13.10;99.90;;;;;;5002480;28;20213;-43
2021/04/17 11:10:34;;;;;;;6.23;5.63;;;13.10;99.90;;;;;;5000297;28;20476;-50
2021/04/17 11:13:00;;;;;;;7.33;5.10;;;12.60;99.90;;;;;;4986063;28;20773;-46
2021/04/17 11:15:29;;;;;;;5.87;5.33;;;12.90;99.90;;;;;;4995289;28;20893;-42
2021/04/17 11:18:12;;;;;;;6.40;4.77;;;12.30;99.90;;;;;;5005082;28;20471;-49
2021/04/17 11:20:51;;;;;;;7.13;5.43;;;12.10;99.90;;;;;;5008141;28;20900;-45
2021/04/17 11:23:49;;;;;;;7.43;5.53;;;12.40;99.90;;;;;;4998829;28;20897;-49
2021/04/17 11:26:20;;;;;;;13.33;6.03;;;12.30;99.90;;;;;;4999915;28;20594;-47
2021/04/17 11:28:49;;;;;;;5.27;4.77;;;12.40;99.90;;;;;;5017875;28;20484;-44
2021/04/17 11:31:18;;;;;;;5.67;5.23;;;13.20;99.90;;;;;;5012617;28;20467;-42
2021/04/17 11:33:48;;;;;;;5.53;4.57;;;13.30;99.90;;;;;;4997899;28;20496;-43
2021/04/17 11:36:16;;;;;;;6.13;5.20;;;13.30;99.90;;;;;;5004794;28;20818;-44
2021/04/17 11:38:43;;;;;;;8.00;5.03;;;13.80;99.90;;;;;;4998321;28;20468;-45
2021/04/17 11:41:10;;;;;;;6.20;4.90;;;14.30;99.90;;;;;;5001659;28;20484;-44
2021/04/17 11:43:37;;;;;;;6.87;4.70;;;14.10;99.90;;;;;;4997814;28;20471;-44
2021/04/17 11:46:04;;;;;;;6.13;4.67;;;14.40;99.90;;;;;;5011648;28;20972;-43
2021/04/17 11:48:30;;;;;;;5.27;4.83;;;14.70;99.90;;;;;;4999978;28;20468;-44
2021/04/17 11:50:57;;;;;;;7.30;4.20;;;14.30;99.90;;;;;;5004597;28;20972;-43
2021/04/17 11:53:25;;;;;;;6.60;4.87;;;14.20;99.90;;;;;;5011488;28;20526;-47
2021/04/17 11:55:53;;;;;;;6.10;4.87;;;13.40;99.90;;;;;;4999066;28;20489;-44
2021/04/17 11:58:21;;;;;;;6.53;4.93;;;13.30;99.90;;;;;;5001680;28;20460;-43
2021/04/17 12:00:50;;;;;;;5.53;4.40;;;13.20;99.90;;;;;;4998885;28;20461;-50
2021/04/17 12:03:21;;;;;;;5.13;4.00;;;12.80;99.90;;;;;;4994631;28;20479;-45
2021/04/17 12:05:48;;;;;;;5.73;3.90;;;13.10;99.90;;;;;;4997879;28;20552;-47
2021/04/17 12:08:18;;;;;;;5.43;3.80;;;12.90;99.90;;;;;;5007919;28;20475;-47
2021/04/17 12:10:48;;;;;;;4.97;4.10;;;12.50;99.90;;;;;;5003183;28;20460;-47
2021/04/17 12:13:15;;;;;;;5.10;4.60;;;12.70;99.90;;;;;;5006677;28;20469;-43
2021/04/17 12:15:43;;;;;;;5.43;4.90;;;13.50;99.90;;;;;;5005210;28;20453;-43
2021/04/17 12:18:09;;;;;;;8.10;5.63;;;14.30;99.90;;;;;;5004254;28;20471;-44
2021/04/17 12:20:38;;;;;;;5.37;4.83;;;14.40;99.90;;;;;;5008126;28;20885;-47
2021/04/17 12:23:10;;;;;;;5.63;4.60;;;14.10;99.90;;;;;;5008439;28;20461;-50
2021/04/17 12:25:40;;;;;;;7.77;5.10;;;13.60;99.90;;;;;;5009457;28;21383;-46
2021/04/17 12:28:09;;;;;;;10.00;5.10;;;13.40;99.90;;;;;;5013210;28;20468;-44
2021/04/17 12:30:36;;;;;;;5.57;5.00;;;12.60;99.90;;;;;;5002469;28;20472;-49
2021/04/17 12:33:03;;;;;;;8.60;5.33;;;12.20;99.90;;;;;;5011421;28;20464;-42
2021/04/17 12:35:29;;;;;;;6.30;4.60;;;12.00;99.90;;;;;;5010761;28;20463;-43
2021/04/17 12:37:58;;;;;;;7.30;5.00;;;12.00;99.90;;;;;;5011017;28;20447;-45
2021/04/17 12:40:25;;;;;;;9.70;7.37;;;12.10;99.90;;;;;;5008406;28;20464;-46
2021/04/17 12:42:52;;;;;;;13.77;12.37;;;12.00;99.90;;;;;;5009895;28;20460;-47
2021/04/17 12:45:20;;;;;;;9.50;6.47;;;11.70;99.90;;;;;;5010845;28;20459;-44
2021/04/17 12:47:49;;;;;;;6.40;5.37;;;11.80;99.90;;;;;;5009630;28;20457;-43
2021/04/17 12:50:15;;;;;;;5.33;4.30;;;12.00;99.90;;;;;;4990847;28;20989;-47
2021/04/17 12:52:42;;;;;;;4.67;4.27;;;11.50;99.90;;;;;;4984449;28;20528;-51
2021/04/17 12:55:10;;;;;;;5.73;4.60;;;11.80;99.90;;;;;;4999843;28;20832;-43
2021/04/17 12:57:39;;;;;;;5.17;4.67;;;12.00;99.90;;;;;;5004705;28;20530;-43
2021/04/17 13:00:12;;;;;;;5.20;4.20;;;12.10;99.90;;;;;;5008684;28;20460;-42